Bombay, New York
Current Conditions -  °F | °C
As of 4:53 AM on Saturday 22 Nov 2014 (Local Time) from KMSS Reporting Station
Overcast Overcast  
Wind Chill: 13°   Ceiling: 2500
Heat Index: 25°   Visibility: 10mi
Dew Point: 17°   Wind: 14mph
Humidity: 72%   Direction: 200°SSW
Pressure: 30.24"   Gusts: NA
Location:  44.94°N, 74.57°W
Report Text: KMSS 220953Z AUTO 20012KT 10SM OVC025 M04/M08 A3024 RMK AO2 SLP247 T10391083
Loading
Personal Weather Stations






























Interactive Weather Map New forecast layout! Learn more

10-Day Weather Forecast

Advertisements
Track Severe Weather on mobile